CheckWX is a tool to help pilots better visualize weather data.  It is not intended as a substitute for an official pre-flight weather briefing.

06:09:11 UTC

KOJC METAR
Johnson County Executive Airport
Olathe, Kansas, USA
Current

16 mins ago

KOJC 290553Z AUTO 32004KT 10SM CLR 17/14 A3006 RMK AO2 SLP174 T01670139 10211 20167 402110167 53010
Observed
May-29 @ 05:53 UTC
Wind
  • 320° at 4 KTS
Visibility
Flight Rules
VFR
Cloud Levels
  • Clear skies
Dewpoint
14°C / 57°F
Humidity
83%
Altimeter
30.06" Hg
Pressure
1017.92 hPa
Previous

1 hour ago

KOJC 290453Z AUTO 31005KT 10SM FEW070 17/14 A3005 RMK AO2 SLP169 T01720144
Observed
May-29 @ 04:53 UTC
Wind
  • 310° at 5 KTS
Visibility
Flight Rules
VFR
Cloud Levels
  • Few at 7,000' AGL
Temperature
17°C / 63°F
Dewpoint
14°C / 57°F
Humidity
83%
Altimeter
30.05" Hg
Pressure
1017.62 hPa
Previous

2 hours ago

KOJC 290353Z AUTO 32003KT 10SM CLR 17/14 A3004 RMK AO2 SLP166 T01720139
Observed
May-29 @ 03:53 UTC
Wind
  • 320° at 3 KTS
Visibility
Flight Rules
VFR
Cloud Levels
  • Clear skies
Temperature
17°C / 63°F
Dewpoint
14°C / 57°F
Humidity
83%
Altimeter
30.04" Hg
Pressure
1017.32 hPa